createdAt,value
2023-04-01T00:01:14.982Z,5.50
2023-04-01T00:03:41.961Z,5.23
2023-04-01T00:06:08.595Z,3.87
2023-04-01T00:08:35.022Z,2.77
2023-04-01T00:11:01.442Z,3.57
2023-04-01T00:13:27.969Z,3.07
2023-04-01T00:15:56.594Z,4.77
2023-04-01T00:18:23.965Z,4.80
2023-04-01T00:20:51.852Z,4.33
2023-04-01T00:23:18.881Z,2.43
2023-04-01T00:25:47.424Z,5.50
2023-04-01T00:28:13.829Z,4.83
2023-04-01T00:30:40.184Z,3.87
2023-04-01T00:33:06.613Z,4.30
2023-04-01T00:35:33.695Z,6.33
2023-04-01T00:38:00.440Z,4.80
2023-04-01T00:40:33.125Z,3.50
2023-04-01T00:43:00.106Z,5.93
2023-04-01T00:45:39.544Z,6.23
2023-04-01T00:48:11.141Z,5.30
2023-04-01T00:50:39.942Z,5.17
2023-04-01T00:53:07.368Z,3.40
2023-04-01T00:55:36.326Z,2.90
2023-04-01T00:58:06.185Z,3.60
2023-04-01T01:00:33.079Z,5.40
2023-04-01T01:02:59.505Z,4.97
2023-04-01T01:05:59.869Z,4.13
2023-04-01T01:08:46.974Z,4.47
2023-04-01T01:11:19.640Z,4.17
2023-04-01T01:14:07.864Z,1.83
2023-04-01T01:16:43.450Z,2.43
2023-04-01T01:19:49.174Z,4.97
2023-04-01T01:22:45.408Z,3.93
2023-04-01T01:25:25.911Z,5.83
2023-04-01T01:28:09.261Z,5.10
2023-04-01T01:31:03.597Z,6.33
2023-04-01T01:33:50.301Z,8.03
2023-04-01T01:36:21.746Z,3.70
2023-04-01T01:38:50.434Z,2.10
2023-04-01T01:41:18.916Z,4.60
2023-04-01T01:43:49.345Z,3.33
2023-04-01T01:46:21.802Z,3.57
2023-04-01T01:48:49.947Z,2.43
2023-04-01T01:51:16.899Z,2.53
2023-04-01T01:53:43.252Z,4.13
2023-04-01T01:56:11.617Z,4.03
2023-04-01T01:58:43.644Z,2.90
2023-04-01T02:01:15.526Z,4.23
2023-04-01T02:03:43.900Z,4.67
2023-04-01T02:06:12.705Z,2.43
2023-04-01T02:08:46.658Z,3.90
2023-04-01T02:11:16.352Z,3.70
2023-04-01T02:13:49.661Z,4.43
2023-04-01T02:16:33.247Z,5.83
2023-04-01T02:19:01.102Z,3.33
2023-04-01T02:21:32.187Z,2.30
2023-04-01T02:24:01.762Z,4.00
2023-04-01T02:26:28.288Z,1.93
2023-04-01T02:28:56.183Z,3.60
2023-04-01T02:31:24.361Z,3.20
2023-04-01T02:33:51.169Z,5.00
2023-04-01T02:36:18.298Z,3.93
2023-04-01T02:38:46.049Z,3.57
2023-04-01T02:41:12.736Z,2.10
2023-04-01T02:43:39.255Z,4.03
2023-04-01T02:46:05.674Z,1.73
2023-04-01T02:48:32.205Z,2.23
2023-04-01T02:50:58.715Z,6.20
2023-04-01T02:53:25.306Z,2.33
2023-04-01T02:55:52.656Z,4.50
2023-04-01T02:58:19.416Z,3.60
2023-04-01T03:00:45.978Z,2.73
2023-04-01T03:03:14.403Z,3.37
2023-04-01T03:05:41.230Z,3.20
2023-04-01T03:08:07.642Z,3.67
2023-04-01T03:10:33.972Z,4.10
2023-04-01T03:13:00.260Z,4.07
2023-04-01T03:15:26.602Z,4.00
2023-04-01T03:17:53.036Z,3.73
2023-04-01T03:20:20.204Z,4.30
2023-04-01T03:22:47.618Z,1.60
2023-04-01T03:25:14.108Z,4.97
2023-04-01T03:27:40.482Z,4.00
2023-04-01T03:30:08.027Z,6.70
2023-04-01T03:32:34.628Z,7.03
2023-04-01T03:35:00.969Z,4.27
2023-04-01T03:37:27.422Z,3.10
2023-04-01T03:39:53.899Z,4.23
2023-04-01T03:42:20.626Z,1.70
2023-04-01T03:44:46.979Z,2.13
2023-04-01T03:47:13.351Z,3.87
2023-04-01T03:49:39.750Z,5.60
2023-04-01T03:52:10.573Z,2.73
2023-04-01T03:54:36.980Z,3.37
2023-04-01T03:57:03.462Z,3.27
2023-04-01T03:59:29.872Z,3.60
2023-04-01T04:01:56.186Z,3.30
2023-04-01T04:04:22.767Z,5.03
2023-04-01T04:06:49.430Z,4.27
2023-04-01T04:09:15.884Z,2.37
2023-04-01T04:11:42.272Z,3.90
2023-04-01T04:14:08.679Z,4.43
2023-04-01T04:16:38.263Z,2.27
2023-04-01T04:19:05.404Z,2.83
2023-04-01T04:21:32.005Z,3.73
2023-04-01T04:24:00.916Z,4.40
2023-04-01T04:26:27.357Z,7.63
2023-04-01T04:28:55.374Z,4.73
2023-04-01T04:31:23.533Z,2.93
2023-04-01T04:33:49.909Z,2.93
2023-04-01T04:36:16.415Z,4.00
2023-04-01T04:38:42.747Z,2.77
2023-04-01T04:41:16.171Z,2.53
2023-04-01T04:43:43.146Z,3.77
2023-04-01T04:46:10.283Z,3.93
2023-04-01T04:48:37.385Z,2.87
2023-04-01T04:51:04.118Z,3.23
2023-04-01T04:53:30.658Z,2.77
2023-04-01T04:55:56.997Z,5.43
2023-04-01T04:58:23.393Z,4.30
2023-04-01T05:00:49.719Z,6.17
2023-04-01T05:03:16.290Z,3.73
2023-04-01T05:05:53.207Z,2.53
2023-04-01T05:08:19.747Z,2.93
2023-04-01T05:10:46.965Z,5.83
2023-04-01T05:13:13.268Z,3.50
2023-04-01T05:15:40.284Z,5.20
2023-04-01T05:18:06.810Z,6.07
2023-04-01T05:20:33.240Z,4.67
2023-04-01T05:23:00.889Z,2.60
2023-04-01T05:25:27.482Z,2.83
2023-04-01T05:27:53.981Z,3.43
2023-04-01T05:30:20.561Z,3.33
2023-04-01T05:32:46.931Z,4.27
2023-04-01T05:35:13.273Z,3.20
2023-04-01T05:37:39.670Z,2.33
2023-04-01T05:40:06.841Z,3.03
2023-04-01T05:42:34.996Z,2.73
2023-04-01T05:45:02.388Z,3.03
2023-04-01T05:47:28.699Z,2.03
2023-04-01T05:49:56.292Z,3.03
2023-04-01T05:52:22.624Z,5.87
2023-04-01T05:54:49.040Z,3.17
2023-04-01T05:57:15.433Z,2.73
2023-04-01T05:59:41.756Z,3.83
2023-04-01T06:02:09.902Z,3.57
2023-04-01T06:04:39.729Z,3.73
2023-04-01T06:07:13.048Z,4.47
2023-04-01T06:09:39.833Z,2.10
2023-04-01T06:12:21.616Z,2.40
2023-04-01T06:15:04.431Z,3.80
2023-04-01T06:17:51.748Z,1.83
2023-04-01T06:20:54.489Z,3.30
2023-04-01T06:23:30.130Z,2.37
2023-04-01T06:26:22.721Z,2.97
2023-04-01T06:29:26.382Z,3.47
2023-04-01T06:32:22.017Z,6.00
2023-04-01T06:34:51.574Z,2.00
2023-04-01T06:37:30.220Z,1.67
2023-04-01T06:40:34.242Z,1.63
2023-04-01T06:43:27.948Z,2.60
2023-04-01T06:46:06.483Z,2.87
2023-04-01T06:49:15.588Z,3.10
2023-04-01T06:52:08.440Z,3.20
2023-04-01T06:54:39.572Z,1.63
2023-04-01T06:57:29.541Z,2.53
2023-04-01T07:00:00.666Z,1.80
2023-04-01T07:02:37.063Z,1.70
2023-04-01T07:05:04.960Z,2.83
2023-04-01T07:08:03.618Z,2.87
2023-04-01T07:10:43.746Z,3.07
2023-04-01T07:13:23.436Z,1.93
2023-04-01T07:15:59.643Z,1.53
2023-04-01T07:18:35.551Z,0.90
2023-04-01T07:21:05.625Z,1.53
2023-04-01T07:23:43.242Z,2.00
2023-04-01T07:26:24.704Z,1.20
2023-04-01T07:28:55.022Z,1.43
2023-04-01T07:31:33.515Z,1.43
2023-04-01T07:34:11.899Z,1.43
2023-04-01T07:36:48.885Z,0.60
2023-04-01T07:39:32.756Z,1.60
2023-04-01T07:42:24.078Z,1.40
2023-04-01T07:45:03.388Z,0.50
2023-04-01T07:47:36.169Z,0.50
2023-04-01T07:50:14.752Z,0.60
2023-04-01T07:53:03.627Z,0.80
2023-04-01T07:55:38.136Z,1.17
2023-04-01T07:58:26.516Z,0.93
2023-04-01T08:01:14.618Z,0.40
2023-04-01T08:04:10.972Z,0.43
2023-04-01T08:06:46.775Z,0.90
2023-04-01T08:09:34.022Z,1.33
2023-04-01T08:12:12.605Z,0.50
2023-04-01T08:14:50.878Z,1.40
2023-04-01T08:17:33.560Z,1.27
2023-04-01T08:20:19.410Z,1.87
2023-04-01T08:22:58.154Z,1.13
2023-04-01T08:25:28.048Z,2.13
2023-04-01T08:28:18.446Z,0.47
2023-04-01T08:30:51.720Z,3.37
2023-04-01T08:33:30.196Z,1.07
2023-04-01T08:36:03.482Z,0.77
2023-04-01T08:38:34.032Z,1.00
2023-04-01T08:41:31.101Z,3.90
2023-04-01T08:44:21.648Z,1.77
2023-04-01T08:47:08.589Z,1.37
2023-04-01T08:49:58.206Z,0.83
2023-04-01T08:52:37.057Z,1.50
2023-04-01T08:55:41.934Z,0.83
2023-04-01T08:58:33.512Z,0.80
2023-04-01T09:01:14.477Z,2.33
2023-04-01T09:04:07.556Z,0.93
2023-04-01T09:06:50.280Z,1.00
2023-04-01T09:09:44.586Z,1.20
2023-04-01T09:12:29.486Z,1.43
2023-04-01T09:15:17.984Z,1.50
2023-04-01T09:18:12.230Z,1.20
2023-04-01T09:20:56.901Z,1.60
2023-04-01T09:23:41.560Z,1.70
2023-04-01T09:26:31.676Z,2.67
2023-04-01T09:29:32.235Z,0.50
2023-04-01T09:32:27.818Z,1.63
2023-04-01T09:35:22.531Z,2.87
2023-04-01T09:38:19.854Z,2.73
2023-04-01T09:41:06.029Z,1.23
2023-04-01T09:44:02.343Z,1.67
2023-04-01T09:46:36.947Z,1.13
2023-04-01T09:49:31.559Z,0.77
2023-04-01T09:52:18.872Z,0.90
2023-04-01T09:55:04.376Z,1.20
2023-04-01T09:58:06.212Z,2.10
2023-04-01T10:01:08.126Z,0.50
2023-04-01T10:04:01.123Z,2.67
2023-04-01T10:07:28.153Z,2.53
2023-04-01T10:10:00.366Z,1.50
2023-04-01T10:12:48.010Z,0.60
2023-04-01T10:15:17.335Z,0.90
2023-04-01T10:18:05.923Z,0.60
2023-04-01T10:20:57.346Z,0.60
2023-04-01T10:23:54.308Z,1.60
2023-04-01T10:26:45.692Z,0.57
2023-04-01T10:29:27.780Z,1.07
2023-04-01T10:32:26.353Z,1.33
2023-04-01T10:35:29.979Z,1.93
2023-04-01T10:38:15.232Z,2.00
2023-04-01T10:41:19.305Z,1.90
2023-04-01T10:44:07.453Z,2.30
2023-04-01T10:46:52.125Z,1.10
2023-04-01T10:49:21.513Z,2.40
2023-04-01T10:52:09.751Z,0.70
2023-04-01T10:54:57.714Z,1.00
2023-04-01T10:57:56.936Z,1.07
2023-04-01T11:00:41.797Z,3.37
2023-04-01T11:03:45.262Z,1.40
2023-04-01T11:06:20.381Z,2.33
2023-04-01T11:09:17.194Z,1.37
2023-04-01T11:12:01.667Z,0.70
2023-04-01T11:14:39.016Z,1.53
2023-04-01T11:17:43.342Z,2.27
2023-04-01T11:20:34.194Z,1.93
2023-04-01T11:23:25.495Z,1.40
2023-04-01T11:26:07.018Z,0.60
2023-04-01T11:28:45.615Z,1.63
2023-04-01T11:31:17.358Z,0.73
2023-04-01T11:34:05.762Z,1.00
2023-04-01T11:37:12.007Z,2.60
2023-04-01T11:39:58.086Z,1.10
2023-04-01T11:42:46.277Z,0.83
2023-04-01T11:45:37.322Z,0.87
2023-04-01T11:48:39.059Z,0.60
2023-04-01T11:51:30.583Z,1.00
2023-04-01T11:54:06.244Z,0.87
2023-04-01T11:56:53.436Z,1.33
2023-04-01T12:00:01.950Z,2.00
2023-04-01T12:03:03.979Z,1.63
2023-04-01T12:05:42.563Z,0.67
2023-04-01T12:08:31.875Z,2.43
2023-04-01T12:11:09.296Z,2.53
2023-04-01T12:13:54.616Z,1.43
2023-04-01T12:16:45.626Z,0.83
2023-04-01T12:19:39.547Z,0.40
2023-04-01T12:22:35.711Z,1.73
2023-04-01T12:25:08.818Z,0.60
2023-04-01T12:28:02.390Z,0.60
2023-04-01T12:31:15.318Z,1.87
2023-04-01T12:34:14.398Z,1.03
2023-04-01T12:37:08.747Z,0.57
2023-04-01T12:40:07.124Z,1.47
2023-04-01T12:42:54.687Z,0.63
2023-04-01T12:45:48.460Z,0.83
2023-04-01T12:48:34.855Z,1.17
2023-04-01T12:51:30.549Z,0.60
2023-04-01T12:54:29.158Z,1.93
2023-04-01T12:57:14.187Z,0.80
2023-04-01T13:00:18.298Z,1.23
2023-04-01T13:03:08.105Z,2.07
2023-04-01T13:06:12.048Z,1.20
2023-04-01T13:08:57.019Z,1.97
2023-04-01T13:11:41.537Z,0.93
2023-04-01T13:14:32.164Z,1.73
2023-04-01T13:17:52.870Z,1.37
2023-04-01T13:20:37.848Z,2.33
2023-04-01T13:23:25.280Z,2.00
2023-04-01T13:26:13.855Z,2.30
2023-04-01T13:28:48.538Z,1.43
2023-04-01T13:31:27.694Z,0.80
2023-04-01T13:34:14.364Z,1.07
2023-04-01T13:37:01.474Z,0.40
2023-04-01T13:39:43.176Z,0.63
2023-04-01T13:42:30.945Z,1.60
2023-04-01T13:45:15.877Z,0.93
2023-04-01T13:47:44.961Z,0.90
2023-04-01T13:50:35.415Z,0.40
2023-04-01T13:53:25.406Z,0.50
2023-04-01T13:56:06.829Z,1.53
2023-04-01T13:59:14.763Z,1.20
2023-04-01T14:02:29.077Z,1.50
2023-04-01T14:05:32.280Z,1.00
2023-04-01T14:08:30.550Z,1.37
2023-04-01T14:11:05.985Z,1.53
2023-04-01T14:13:57.138Z,1.77
2023-04-01T14:16:32.327Z,0.70
2023-04-01T14:19:04.307Z,0.50
2023-04-01T14:21:47.804Z,1.03
2023-04-01T14:24:21.125Z,0.97
2023-04-01T14:27:18.241Z,0.80
2023-04-01T14:30:06.537Z,1.30
2023-04-01T14:32:42.895Z,0.50
2023-04-01T14:35:23.170Z,0.50
2023-04-01T14:38:26.997Z,1.17
2023-04-01T14:40:57.366Z,0.93
2023-04-01T14:43:53.019Z,0.50
2023-04-01T14:46:36.827Z,0.70
2023-04-01T14:49:14.874Z,0.70
2023-04-01T14:51:42.207Z,0.50
2023-04-01T14:54:11.556Z,2.30
2023-04-01T14:56:44.044Z,1.23
2023-04-01T14:59:27.093Z,1.27
2023-04-01T15:02:07.690Z,1.07
2023-04-01T15:04:36.888Z,2.10
2023-04-01T15:07:11.434Z,1.33
2023-04-01T15:09:59.261Z,2.27
2023-04-01T15:12:45.685Z,2.40
2023-04-01T15:15:39.865Z,1.00
2023-04-01T15:18:14.103Z,2.50
2023-04-01T15:20:52.066Z,3.23
2023-04-01T15:23:30.069Z,1.47
2023-04-01T15:26:08.727Z,1.43
2023-04-01T15:29:07.304Z,0.93
2023-04-01T15:31:51.536Z,1.10
2023-04-01T15:34:43.992Z,2.10
2023-04-01T15:37:35.141Z,0.97
2023-04-01T15:40:33.811Z,1.07
2023-04-01T15:43:41.003Z,1.00
2023-04-01T15:46:19.622Z,1.30
2023-04-01T15:49:12.928Z,1.30
2023-04-01T15:51:57.263Z,2.63
2023-04-01T15:54:45.315Z,1.57
2023-04-01T15:57:53.329Z,1.70
2023-04-01T16:00:28.614Z,0.90
2023-04-01T16:03:28.178Z,2.83
2023-04-01T16:06:14.732Z,1.10
2023-04-01T16:09:02.698Z,1.30
2023-04-01T16:11:42.041Z,1.53
2023-04-01T16:14:26.694Z,2.03
2023-04-01T16:17:14.842Z,1.13
2023-04-01T16:19:52.350Z,3.20
2023-04-01T16:22:24.467Z,1.20
2023-04-01T16:25:29.953Z,1.27
2023-04-01T16:28:23.343Z,2.00
2023-04-01T16:31:12.017Z,1.73
2023-04-01T16:33:52.352Z,2.93
2023-04-01T16:36:42.058Z,1.80
2023-04-01T16:39:41.625Z,1.60
2023-04-01T16:42:07.857Z,4.50
2023-04-01T16:44:57.626Z,4.03
2023-04-01T16:47:32.175Z,2.30
2023-04-01T16:50:24.267Z,6.27
2023-04-01T16:53:12.094Z,7.83
2023-04-01T16:56:11.962Z,6.47
2023-04-01T16:58:49.192Z,3.43
2023-04-01T17:01:25.553Z,2.80
2023-04-01T17:04:01.658Z,2.73
2023-04-01T17:06:40.064Z,2.20
2023-04-01T17:09:35.243Z,2.80
2023-04-01T17:12:36.464Z,2.90
2023-04-01T17:15:18.387Z,2.53
2023-04-01T17:18:14.658Z,2.50
2023-04-01T17:20:56.128Z,2.87
2023-04-01T17:23:32.926Z,2.90
2023-04-01T17:26:47.492Z,3.87
2023-04-01T17:29:24.831Z,3.37
2023-04-01T17:32:17.157Z,4.30
2023-04-01T17:34:54.872Z,4.37
2023-04-01T17:37:42.594Z,3.33
2023-04-01T17:40:23.847Z,3.37
2023-04-01T17:43:06.669Z,2.87
2023-04-01T17:45:44.903Z,3.90
2023-04-01T17:48:25.270Z,5.80
2023-04-01T17:51:09.009Z,5.40
2023-04-01T17:53:44.251Z,3.90
2023-04-01T17:56:19.860Z,1.50
2023-04-01T17:58:48.305Z,1.40
2023-04-01T18:01:27.434Z,2.80
2023-04-01T18:04:06.706Z,2.07
2023-04-01T18:06:50.646Z,8.10
2023-04-01T18:09:44.224Z,12.57
2023-04-01T18:12:19.222Z,5.30
2023-04-01T18:14:54.534Z,3.10
2023-04-01T18:17:46.775Z,6.93
2023-04-01T18:20:31.039Z,4.70
2023-04-01T18:23:39.976Z,2.43
2023-04-01T18:26:14.031Z,1.83
2023-04-01T18:28:53.351Z,2.33
2023-04-01T18:31:24.050Z,1.80
2023-04-01T18:34:08.970Z,2.00
2023-04-01T18:36:44.667Z,1.70
2023-04-01T18:39:17.434Z,1.77
2023-04-01T18:42:00.897Z,1.80
2023-04-01T18:44:55.047Z,2.63
2023-04-01T18:48:01.303Z,3.00
2023-04-01T18:50:37.823Z,2.83
2023-04-01T18:53:37.099Z,4.67
2023-04-01T18:56:10.592Z,1.83
2023-04-01T18:58:49.471Z,1.80
2023-04-01T19:01:34.505Z,2.87
2023-04-01T19:04:10.370Z,2.33
2023-04-01T19:06:44.374Z,2.13
2023-04-01T19:09:48.489Z,2.20
2023-04-01T19:12:30.639Z,1.67
2023-04-01T19:15:21.280Z,1.60
2023-04-01T19:18:23.230Z,1.40
2023-04-01T19:20:58.378Z,1.53
2023-04-01T19:24:01.841Z,1.97
2023-04-01T19:26:52.084Z,2.47
2023-04-01T19:29:56.569Z,1.80
2023-04-01T19:32:38.196Z,1.87
2023-04-01T19:35:24.656Z,2.10
2023-04-01T19:38:13.019Z,3.93
2023-04-01T19:40:49.342Z,3.27
2023-04-01T19:43:18.694Z,1.73
2023-04-01T19:46:17.838Z,1.97
2023-04-01T19:48:55.483Z,1.20
2023-04-01T19:51:46.759Z,3.17
2023-04-01T19:54:38.717Z,3.60
2023-04-01T19:57:05.333Z,1.90
2023-04-01T19:59:43.860Z,1.33
2023-04-01T20:02:11.940Z,1.60
2023-04-01T20:04:49.181Z,1.83
2023-04-01T20:07:41.995Z,1.50
2023-04-01T20:10:18.696Z,1.30
2023-04-01T20:12:56.258Z,1.90
2023-04-01T20:15:38.829Z,1.87
2023-04-01T20:18:46.352Z,1.60
2023-04-01T20:21:28.403Z,2.73
2023-04-01T20:24:02.960Z,1.50
2023-04-01T20:26:41.246Z,1.50
2023-04-01T20:29:19.513Z,1.53
2023-04-01T20:31:59.963Z,1.50
2023-04-01T20:34:46.063Z,2.90
2023-04-01T20:37:41.311Z,2.20
2023-04-01T20:40:21.194Z,1.90
2023-04-01T20:42:57.225Z,1.40
2023-04-01T20:45:49.547Z,5.50
2023-04-01T20:48:35.293Z,2.17
2023-04-01T20:51:07.370Z,1.43
2023-04-01T20:53:51.571Z,2.33
2023-04-01T20:56:24.036Z,2.60
2023-04-01T20:59:29.300Z,3.17
2023-04-01T21:02:06.135Z,3.03
2023-04-01T21:05:09.692Z,3.97
2023-04-01T21:07:47.138Z,3.37
2023-04-01T21:10:41.268Z,4.20
2023-04-01T21:13:43.136Z,2.47
2023-04-01T21:16:43.127Z,3.77
2023-04-01T21:19:32.153Z,3.93
2023-04-01T21:22:20.510Z,2.80
2023-04-01T21:24:58.003Z,2.60
2023-04-01T21:27:49.026Z,2.33
2023-04-01T21:30:42.032Z,2.90
2023-04-01T21:33:16.205Z,3.10
2023-04-01T21:36:18.094Z,2.87
2023-04-01T21:39:03.477Z,2.23
2023-04-01T21:41:34.420Z,4.10
2023-04-01T21:44:20.461Z,2.40
2023-04-01T21:47:27.607Z,3.10
2023-04-01T21:50:12.741Z,2.03
2023-04-01T21:53:16.354Z,2.00
2023-04-01T21:55:54.622Z,3.33
2023-04-01T21:58:43.031Z,5.20
2023-04-01T22:01:18.729Z,2.93
2023-04-01T22:04:02.528Z,2.40
2023-04-01T22:06:38.963Z,1.80
2023-04-01T22:09:38.769Z,1.73
2023-04-01T22:12:14.419Z,3.67
2023-04-01T22:14:59.628Z,2.57
2023-04-01T22:17:37.568Z,1.53
2023-04-01T22:20:31.953Z,1.47
2023-04-01T22:23:26.303Z,2.60
2023-04-01T22:26:01.302Z,3.13
2023-04-01T22:29:03.977Z,1.57
2023-04-01T22:31:42.713Z,2.17
2023-04-01T22:34:20.504Z,3.50
2023-04-01T22:37:12.353Z,4.33
2023-04-01T22:40:08.501Z,2.33
2023-04-01T22:42:43.532Z,1.93
2023-04-01T22:45:44.504Z,2.50
2023-04-01T22:48:22.211Z,3.47
2023-04-01T22:50:54.910Z,3.87
2023-04-01T22:53:56.379Z,5.53
2023-04-01T22:56:30.988Z,1.70
2023-04-01T22:59:16.535Z,1.80
2023-04-01T23:01:54.527Z,2.10
2023-04-01T23:04:26.248Z,4.77
2023-04-01T23:06:57.496Z,2.20
2023-04-01T23:09:29.353Z,2.23
2023-04-01T23:12:01.344Z,2.27
2023-04-01T23:14:34.531Z,2.17
2023-04-01T23:17:12.878Z,3.77
2023-04-01T23:19:47.243Z,2.53
2023-04-01T23:22:41.590Z,2.50
2023-04-01T23:25:29.483Z,1.90
2023-04-01T23:28:18.387Z,2.33
2023-04-01T23:30:44.960Z,2.40
2023-04-01T23:33:11.263Z,3.87
2023-04-01T23:35:49.018Z,2.53
2023-04-01T23:38:24.319Z,2.40
2023-04-01T23:40:53.181Z,2.27
2023-04-01T23:43:25.900Z,5.23
2023-04-01T23:45:54.050Z,2.50
2023-04-01T23:48:25.875Z,2.80
2023-04-01T23:50:52.511Z,2.17
2023-04-01T23:53:26.003Z,2.33
2023-04-01T23:55:53.089Z,2.40
2023-04-01T23:58:27.180Z,2.57
